sensor_id;sensor_type;location;lat;lon;timestamp;P1;durP1;ratioP1;P2;durP2;ratioP2
12076;SDS011;12420;42.676;23.262;2023-07-29T00:01:43;2.70;;;2.50;;
12076;SDS011;12420;42.676;23.262;2023-07-29T00:04:11;2.73;;;2.53;;
12076;SDS011;12420;42.676;23.262;2023-07-29T00:06:38;3.00;;;2.80;;
12076;SDS011;12420;42.676;23.262;2023-07-29T00:09:04;4.03;;;2.70;;
12076;SDS011;12420;42.676;23.262;2023-07-29T00:11:31;6.90;;;2.70;;
12076;SDS011;12420;42.676;23.262;2023-07-29T00:13:59;2.80;;;2.70;;
12076;SDS011;12420;42.676;23.262;2023-07-29T00:16:26;2.57;;;2.37;;
12076;SDS011;12420;42.676;23.262;2023-07-29T00:18:54;2.60;;;2.40;;
12076;SDS011;12420;42.676;23.262;2023-07-29T00:21:21;3.53;;;2.63;;
12076;SDS011;12420;42.676;23.262;2023-07-29T00:23:48;2.93;;;2.70;;
12076;SDS011;12420;42.676;23.262;2023-07-29T00:26:14;2.80;;;2.60;;
12076;SDS011;12420;42.676;23.262;2023-07-29T00:28:41;63.80;;;5.30;;
12076;SDS011;12420;42.676;23.262;2023-07-29T00:31:08;3.47;;;2.57;;
12076;SDS011;12420;42.676;23.262;2023-07-29T00:33:35;2.80;;;2.57;;
12076;SDS011;12420;42.676;23.262;2023-07-29T00:36:04;4.57;;;2.70;;
12076;SDS011;12420;42.676;23.262;2023-07-29T00:38:31;2.60;;;2.40;;
12076;SDS011;12420;42.676;23.262;2023-07-29T00:40:57;2.80;;;2.60;;
12076;SDS011;12420;42.676;23.262;2023-07-29T00:43:24;2.83;;;2.40;;
12076;SDS011;12420;42.676;23.262;2023-07-29T00:45:51;2.80;;;2.60;;
12076;SDS011;12420;42.676;23.262;2023-07-29T00:48:19;2.60;;;2.50;;
12076;SDS011;12420;42.676;23.262;2023-07-29T00:50:46;2.90;;;2.70;;
12076;SDS011;12420;42.676;23.262;2023-07-29T00:53:14;2.67;;;2.50;;
12076;SDS011;12420;42.676;23.262;2023-07-29T00:55:41;2.80;;;2.60;;
12076;SDS011;12420;42.676;23.262;2023-07-29T00:58:10;3.00;;;2.70;;
12076;SDS011;12420;42.676;23.262;2023-07-29T01:00:38;2.77;;;2.57;;
12076;SDS011;12420;42.676;23.262;2023-07-29T01:03:06;2.43;;;2.30;;
12076;SDS011;12420;42.676;23.262;2023-07-29T01:05:44;2.93;;;2.70;;
12076;SDS011;12420;42.676;23.262;2023-07-29T01:08:27;3.30;;;3.00;;
12076;SDS011;12420;42.676;23.262;2023-07-29T01:11:01;4.37;;;2.70;;
12076;SDS011;12420;42.676;23.262;2023-07-29T01:13:47;3.40;;;3.10;;
12076;SDS011;12420;42.676;23.262;2023-07-29T01:16:19;2.97;;;2.70;;
12076;SDS011;12420;42.676;23.262;2023-07-29T01:18:50;3.00;;;2.73;;
12076;SDS011;12420;42.676;23.262;2023-07-29T01:21:20;4.23;;;2.87;;
12076;SDS011;12420;42.676;23.262;2023-07-29T01:23:50;3.10;;;2.80;;
12076;SDS011;12420;42.676;23.262;2023-07-29T01:26:18;5.00;;;2.97;;
12076;SDS011;12420;42.676;23.262;2023-07-29T01:28:45;3.20;;;2.90;;
12076;SDS011;12420;42.676;23.262;2023-07-29T01:31:13;2.90;;;2.70;;
12076;SDS011;12420;42.676;23.262;2023-07-29T01:33:45;3.30;;;3.00;;
12076;SDS011;12420;42.676;23.262;2023-07-29T01:36:20;3.00;;;2.80;;
12076;SDS011;12420;42.676;23.262;2023-07-29T01:38:50;6.03;;;3.03;;
12076;SDS011;12420;42.676;23.262;2023-07-29T01:41:19;4.60;;;3.10;;
12076;SDS011;12420;42.676;23.262;2023-07-29T01:43:47;2.93;;;2.73;;
12076;SDS011;12420;42.676;23.262;2023-07-29T01:46:14;4.57;;;3.00;;
12076;SDS011;12420;42.676;23.262;2023-07-29T01:48:41;3.37;;;2.93;;
12076;SDS011;12420;42.676;23.262;2023-07-29T01:51:10;6.57;;;3.13;;
12076;SDS011;12420;42.676;23.262;2023-07-29T01:53:41;6.27;;;3.40;;
12076;SDS011;12420;42.676;23.262;2023-07-29T01:56:09;2.93;;;2.73;;
12076;SDS011;12420;42.676;23.262;2023-07-29T01:58:36;3.27;;;3.00;;
12076;SDS011;12420;42.676;23.262;2023-07-29T02:01:03;3.60;;;3.30;;
12076;SDS011;12420;42.676;23.262;2023-07-29T02:03:30;4.10;;;3.00;;
12076;SDS011;12420;42.676;23.262;2023-07-29T02:05:57;3.77;;;3.47;;
12076;SDS011;12420;42.676;23.262;2023-07-29T02:08:23;3.53;;;3.23;;
12076;SDS011;12420;42.676;23.262;2023-07-29T02:10:50;3.20;;;3.00;;
12076;SDS011;12420;42.676;23.262;2023-07-29T02:13:18;3.33;;;3.03;;
12076;SDS011;12420;42.676;23.262;2023-07-29T02:15:45;6.10;;;3.43;;
12076;SDS011;12420;42.676;23.262;2023-07-29T02:18:12;4.00;;;2.97;;
12076;SDS011;12420;42.676;23.262;2023-07-29T02:20:38;3.30;;;3.10;;
12076;SDS011;12420;42.676;23.262;2023-07-29T02:23:05;6.07;;;3.20;;
12076;SDS011;12420;42.676;23.262;2023-07-29T02:25:34;3.30;;;3.10;;
12076;SDS011;12420;42.676;23.262;2023-07-29T02:28:01;3.33;;;3.10;;
12076;SDS011;12420;42.676;23.262;2023-07-29T02:30:31;3.27;;;3.00;;
12076;SDS011;12420;42.676;23.262;2023-07-29T02:32:57;3.63;;;3.03;;
12076;SDS011;12420;42.676;23.262;2023-07-29T02:35:25;3.30;;;3.10;;
12076;SDS011;12420;42.676;23.262;2023-07-29T02:37:52;3.60;;;3.27;;
12076;SDS011;12420;42.676;23.262;2023-07-29T02:40:18;3.70;;;3.30;;
12076;SDS011;12420;42.676;23.262;2023-07-29T02:42:48;3.70;;;3.40;;
12076;SDS011;12420;42.676;23.262;2023-07-29T02:45:14;3.93;;;3.40;;
12076;SDS011;12420;42.676;23.262;2023-07-29T02:47:43;5.83;;;3.20;;
12076;SDS011;12420;42.676;23.262;2023-07-29T02:50:09;3.40;;;3.13;;
12076;SDS011;12420;42.676;23.262;2023-07-29T02:52:36;3.40;;;3.10;;
12076;SDS011;12420;42.676;23.262;2023-07-29T02:55:03;4.37;;;3.30;;
12076;SDS011;12420;42.676;23.262;2023-07-29T02:57:30;3.67;;;3.23;;
12076;SDS011;12420;42.676;23.262;2023-07-29T02:59:57;3.67;;;3.43;;
12076;SDS011;12420;42.676;23.262;2023-07-29T03:02:26;3.90;;;3.60;;
12076;SDS011;12420;42.676;23.262;2023-07-29T03:04:54;4.77;;;3.40;;
12076;SDS011;12420;42.676;23.262;2023-07-29T03:07:21;3.90;;;3.43;;
12076;SDS011;12420;42.676;23.262;2023-07-29T03:09:48;3.80;;;3.37;;
12076;SDS011;12420;42.676;23.262;2023-07-29T03:12:14;4.63;;;3.40;;
12076;SDS011;12420;42.676;23.262;2023-07-29T03:14:41;5.47;;;3.20;;
12076;SDS011;12420;42.676;23.262;2023-07-29T03:17:08;31.77;;;5.47;;
12076;SDS011;12420;42.676;23.262;2023-07-29T03:19:35;13.57;;;3.90;;
12076;SDS011;12420;42.676;23.262;2023-07-29T03:22:03;5.27;;;3.87;;
12076;SDS011;12420;42.676;23.262;2023-07-29T03:24:30;5.17;;;4.00;;
12076;SDS011;12420;42.676;23.262;2023-07-29T03:26:56;7.63;;;3.70;;
12076;SDS011;12420;42.676;23.262;2023-07-29T03:29:23;5.97;;;3.70;;
12076;SDS011;12420;42.676;23.262;2023-07-29T03:31:50;5.17;;;3.40;;
12076;SDS011;12420;42.676;23.262;2023-07-29T03:34:17;3.97;;;3.30;;
12076;SDS011;12420;42.676;23.262;2023-07-29T03:36:43;8.20;;;3.40;;
12076;SDS011;12420;42.676;23.262;2023-07-29T03:39:14;25.00;;;5.40;;
12076;SDS011;12420;42.676;23.262;2023-07-29T03:41:40;8.40;;;4.50;;
12076;SDS011;12420;42.676;23.262;2023-07-29T03:44:07;7.33;;;4.10;;
12076;SDS011;12420;42.676;23.262;2023-07-29T03:46:34;6.83;;;3.90;;
12076;SDS011;12420;42.676;23.262;2023-07-29T03:49:00;4.50;;;4.10;;
12076;SDS011;12420;42.676;23.262;2023-07-29T03:51:28;5.17;;;4.30;;
12076;SDS011;12420;42.676;23.262;2023-07-29T03:53:54;5.27;;;4.20;;
12076;SDS011;12420;42.676;23.262;2023-07-29T03:56:23;8.57;;;4.40;;
12076;SDS011;12420;42.676;23.262;2023-07-29T03:58:49;6.97;;;4.10;;
12076;SDS011;12420;42.676;23.262;2023-07-29T04:01:17;6.50;;;4.40;;
12076;SDS011;12420;42.676;23.262;2023-07-29T04:03:44;6.70;;;3.73;;
12076;SDS011;12420;42.676;23.262;2023-07-29T04:06:11;5.63;;;3.83;;
12076;SDS011;12420;42.676;23.262;2023-07-29T04:08:38;4.67;;;3.63;;
12076;SDS011;12420;42.676;23.262;2023-07-29T04:11:04;5.37;;;4.00;;
12076;SDS011;12420;42.676;23.262;2023-07-29T04:13:33;11.97;;;4.50;;
12076;SDS011;12420;42.676;23.262;2023-07-29T04:15:59;4.00;;;3.40;;
12076;SDS011;12420;42.676;23.262;2023-07-29T04:18:26;5.77;;;4.00;;
12076;SDS011;12420;42.676;23.262;2023-07-29T04:20:53;4.07;;;3.73;;
12076;SDS011;12420;42.676;23.262;2023-07-29T04:23:20;6.70;;;3.60;;
12076;SDS011;12420;42.676;23.262;2023-07-29T04:25:47;5.23;;;3.93;;
12076;SDS011;12420;42.676;23.262;2023-07-29T04:28:15;9.23;;;4.47;;
12076;SDS011;12420;42.676;23.262;2023-07-29T04:30:43;13.03;;;4.87;;
12076;SDS011;12420;42.676;23.262;2023-07-29T04:33:10;4.33;;;3.93;;
12076;SDS011;12420;42.676;23.262;2023-07-29T04:35:36;6.53;;;4.10;;
12076;SDS011;12420;42.676;23.262;2023-07-29T04:38:03;4.97;;;4.03;;
12076;SDS011;12420;42.676;23.262;2023-07-29T04:40:32;4.63;;;4.17;;
12076;SDS011;12420;42.676;23.262;2023-07-29T04:42:59;12.07;;;4.30;;
12076;SDS011;12420;42.676;23.262;2023-07-29T04:45:27;4.83;;;4.30;;
12076;SDS011;12420;42.676;23.262;2023-07-29T04:47:58;6.73;;;4.43;;
12076;SDS011;12420;42.676;23.262;2023-07-29T04:50:25;6.03;;;4.47;;
12076;SDS011;12420;42.676;23.262;2023-07-29T04:52:52;6.10;;;4.40;;
12076;SDS011;12420;42.676;23.262;2023-07-29T04:55:21;7.10;;;4.50;;
12076;SDS011;12420;42.676;23.262;2023-07-29T04:57:47;11.23;;;4.57;;
12076;SDS011;12420;42.676;23.262;2023-07-29T05:00:14;11.17;;;4.30;;
12076;SDS011;12420;42.676;23.262;2023-07-29T05:02:41;9.90;;;4.50;;
12076;SDS011;12420;42.676;23.262;2023-07-29T05:05:09;6.83;;;4.60;;
12076;SDS011;12420;42.676;23.262;2023-07-29T05:07:36;10.10;;;4.67;;
12076;SDS011;12420;42.676;23.262;2023-07-29T05:10:03;7.53;;;4.97;;
12076;SDS011;12420;42.676;23.262;2023-07-29T05:12:30;6.07;;;4.80;;
12076;SDS011;12420;42.676;23.262;2023-07-29T05:14:57;4.90;;;4.30;;
12076;SDS011;12420;42.676;23.262;2023-07-29T05:17:24;9.67;;;4.30;;
12076;SDS011;12420;42.676;23.262;2023-07-29T05:19:51;8.90;;;5.00;;
12076;SDS011;12420;42.676;23.262;2023-07-29T05:22:20;7.07;;;4.30;;
12076;SDS011;12420;42.676;23.262;2023-07-29T05:24:46;8.53;;;4.70;;
12076;SDS011;12420;42.676;23.262;2023-07-29T05:27:13;26.17;;;5.47;;
12076;SDS011;12420;42.676;23.262;2023-07-29T05:29:40;11.03;;;5.00;;
12076;SDS011;12420;42.676;23.262;2023-07-29T05:32:07;4.97;;;4.50;;
12076;SDS011;12420;42.676;23.262;2023-07-29T05:34:33;8.50;;;5.07;;
12076;SDS011;12420;42.676;23.262;2023-07-29T05:37:00;10.40;;;5.07;;
12076;SDS011;12420;42.676;23.262;2023-07-29T05:39:28;7.60;;;4.83;;
12076;SDS011;12420;42.676;23.262;2023-07-29T05:41:57;6.03;;;5.00;;
12076;SDS011;12420;42.676;23.262;2023-07-29T05:44:24;5.03;;;4.40;;
12076;SDS011;12420;42.676;23.262;2023-07-29T05:46:50;5.37;;;4.47;;
12076;SDS011;12420;42.676;23.262;2023-07-29T05:49:17;9.47;;;4.90;;
12076;SDS011;12420;42.676;23.262;2023-07-29T05:51:44;7.00;;;4.13;;
12076;SDS011;12420;42.676;23.262;2023-07-29T05:54:11;5.33;;;4.13;;
12076;SDS011;12420;42.676;23.262;2023-07-29T05:56:39;5.72;;;4.57;;
12076;SDS011;12420;42.676;23.262;2023-07-29T05:59:05;5.68;;;4.50;;
12076;SDS011;12420;42.676;23.262;2023-07-29T06:01:32;10.17;;;5.37;;
12076;SDS011;12420;42.676;23.262;2023-07-29T06:04:01;7.95;;;5.20;;
12076;SDS011;12420;42.676;23.262;2023-07-29T06:06:28;8.68;;;4.70;;
12076;SDS011;12420;42.676;23.262;2023-07-29T06:08:55;8.77;;;5.30;;
12076;SDS011;12420;42.676;23.262;2023-07-29T06:11:24;5.68;;;5.07;;
12076;SDS011;12420;42.676;23.262;2023-07-29T06:13:54;8.80;;;5.85;;
12076;SDS011;12420;42.676;23.262;2023-07-29T06:16:21;10.20;;;5.40;;
12076;SDS011;12420;42.676;23.262;2023-07-29T06:18:47;6.55;;;5.20;;
12076;SDS011;12420;42.676;23.262;2023-07-29T06:21:17;9.23;;;5.22;;
12076;SDS011;12420;42.676;23.262;2023-07-29T06:23:45;8.20;;;5.30;;
12076;SDS011;12420;42.676;23.262;2023-07-29T06:26:14;11.35;;;5.20;;
12076;SDS011;12420;42.676;23.262;2023-07-29T06:31:30;10.10;;;5.22;;
12076;SDS011;12420;42.676;23.262;2023-07-29T06:34:01;8.95;;;5.30;;
12076;SDS011;12420;42.676;23.262;2023-07-29T06:36:30;8.13;;;4.53;;
12076;SDS011;12420;42.676;23.262;2023-07-29T06:38:57;6.55;;;4.25;;
12076;SDS011;12420;42.676;23.262;2023-07-29T06:41:27;11.98;;;5.05;;
12076;SDS011;12420;42.676;23.262;2023-07-29T06:43:57;6.72;;;4.20;;
12076;SDS011;12420;42.676;23.262;2023-07-29T06:46:25;8.45;;;4.18;;
12076;SDS011;12420;42.676;23.262;2023-07-29T06:48:52;6.13;;;4.10;;
12076;SDS011;12420;42.676;23.262;2023-07-29T06:51:22;8.10;;;4.43;;
12076;SDS011;12420;42.676;23.262;2023-07-29T06:53:52;8.35;;;4.30;;
12076;SDS011;12420;42.676;23.262;2023-07-29T06:56:20;6.68;;;4.63;;
12076;SDS011;12420;42.676;23.262;2023-07-29T06:58:51;10.07;;;5.05;;
12076;SDS011;12420;42.676;23.262;2023-07-29T07:01:17;7.65;;;4.65;;
12076;SDS011;12420;42.676;23.262;2023-07-29T07:03:47;6.20;;;4.55;;
12076;SDS011;12420;42.676;23.262;2023-07-29T07:06:19;8.75;;;3.80;;
12076;SDS011;12420;42.676;23.262;2023-07-29T07:08:49;5.20;;;4.18;;
12076;SDS011;12420;42.676;23.262;2023-07-29T07:11:15;6.15;;;4.05;;
12076;SDS011;12420;42.676;23.262;2023-07-29T07:13:45;7.10;;;3.88;;
12076;SDS011;12420;42.676;23.262;2023-07-29T07:16:12;5.88;;;4.07;;
12076;SDS011;12420;42.676;23.262;2023-07-29T07:18:39;4.10;;;3.70;;
12076;SDS011;12420;42.676;23.262;2023-07-29T07:21:17;4.95;;;3.80;;
12076;SDS011;12420;42.676;23.262;2023-07-29T07:23:57;3.67;;;3.42;;
12076;SDS011;12420;42.676;23.262;2023-07-29T07:26:24;4.78;;;3.50;;
12076;SDS011;12420;42.676;23.262;2023-07-29T07:28:51;3.65;;;3.33;;
12076;SDS011;12420;42.676;23.262;2023-07-29T07:31:18;5.85;;;3.42;;
12076;SDS011;12420;42.676;23.262;2023-07-29T07:33:44;6.65;;;3.67;;
12076;SDS011;12420;42.676;23.262;2023-07-29T07:36:13;4.20;;;3.80;;
12076;SDS011;12420;42.676;23.262;2023-07-29T07:38:40;4.55;;;4.15;;
12076;SDS011;12420;42.676;23.262;2023-07-29T07:41:07;6.03;;;3.90;;
12076;SDS011;12420;42.676;23.262;2023-07-29T07:43:34;6.47;;;4.10;;
12076;SDS011;12420;42.676;23.262;2023-07-29T07:46:01;6.65;;;4.70;;
12076;SDS011;12420;42.676;23.262;2023-07-29T07:48:29;5.63;;;4.85;;
12076;SDS011;12420;42.676;23.262;2023-07-29T07:50:58;6.05;;;4.32;;
12076;SDS011;12420;42.676;23.262;2023-07-29T07:53:27;5.90;;;5.00;;
12076;SDS011;12420;42.676;23.262;2023-07-29T07:55:54;4.82;;;4.40;;
12076;SDS011;12420;42.676;23.262;2023-07-29T07:58:21;6.93;;;4.80;;
12076;SDS011;12420;42.676;23.262;2023-07-29T08:00:49;7.63;;;4.72;;
12076;SDS011;12420;42.676;23.262;2023-07-29T08:03:17;10.73;;;4.93;;
12076;SDS011;12420;42.676;23.262;2023-07-29T08:05:45;7.38;;;4.18;;
12076;SDS011;12420;42.676;23.262;2023-07-29T08:08:12;8.10;;;4.30;;
12076;SDS011;12420;42.676;23.262;2023-07-29T08:10:41;6.55;;;3.97;;
12076;SDS011;12420;42.676;23.262;2023-07-29T08:13:07;5.35;;;4.00;;
12076;SDS011;12420;42.676;23.262;2023-07-29T08:15:34;7.80;;;4.40;;
12076;SDS011;12420;42.676;23.262;2023-07-29T08:18:01;8.63;;;4.35;;
12076;SDS011;12420;42.676;23.262;2023-07-29T08:20:28;5.07;;;4.10;;
12076;SDS011;12420;42.676;23.262;2023-07-29T08:22:54;5.40;;;3.92;;
12076;SDS011;12420;42.676;23.262;2023-07-29T08:25:21;5.93;;;3.85;;
12076;SDS011;12420;42.676;23.262;2023-07-29T08:27:49;7.38;;;3.60;;
12076;SDS011;12420;42.676;23.262;2023-07-29T08:30:16;7.32;;;3.95;;
12076;SDS011;12420;42.676;23.262;2023-07-29T08:32:44;4.90;;;3.85;;
12076;SDS011;12420;42.676;23.262;2023-07-29T08:35:12;6.15;;;3.65;;
12076;SDS011;12420;42.676;23.262;2023-07-29T08:37:38;5.82;;;3.50;;
12076;SDS011;12420;42.676;23.262;2023-07-29T08:40:06;5.25;;;3.53;;
12076;SDS011;12420;42.676;23.262;2023-07-29T08:42:34;5.03;;;3.33;;
12076;SDS011;12420;42.676;23.262;2023-07-29T08:45:06;6.50;;;3.50;;
12076;SDS011;12420;42.676;23.262;2023-07-29T08:47:34;4.78;;;3.20;;
12076;SDS011;12420;42.676;23.262;2023-07-29T08:50:01;7.05;;;3.35;;
12076;SDS011;12420;42.676;23.262;2023-07-29T08:52:29;5.45;;;3.83;;
12076;SDS011;12420;42.676;23.262;2023-07-29T08:54:59;6.55;;;3.40;;
12076;SDS011;12420;42.676;23.262;2023-07-29T08:57:27;5.20;;;3.60;;
12076;SDS011;12420;42.676;23.262;2023-07-29T08:59:54;6.43;;;3.20;;
12076;SDS011;12420;42.676;23.262;2023-07-29T09:02:24;6.22;;;3.58;;
12076;SDS011;12420;42.676;23.262;2023-07-29T09:04:51;5.88;;;3.22;;
12076;SDS011;12420;42.676;23.262;2023-07-29T09:07:18;3.42;;;2.97;;
12076;SDS011;12420;42.676;23.262;2023-07-29T09:09:45;3.35;;;2.63;;
12076;SDS011;12420;42.676;23.262;2023-07-29T09:12:12;3.80;;;2.20;;
12076;SDS011;12420;42.676;23.262;2023-07-29T09:14:39;3.10;;;2.22;;
12076;SDS011;12420;42.676;23.262;2023-07-29T09:17:06;4.22;;;2.42;;
12076;SDS011;12420;42.676;23.262;2023-07-29T09:19:35;3.67;;;1.90;;
12076;SDS011;12420;42.676;23.262;2023-07-29T09:22:02;2.20;;;2.00;;
12076;SDS011;12420;42.676;23.262;2023-07-29T09:24:29;1.90;;;1.80;;
12076;SDS011;12420;42.676;23.262;2023-07-29T09:26:57;5.45;;;2.58;;
12076;SDS011;12420;42.676;23.262;2023-07-29T09:29:24;4.28;;;2.40;;
12076;SDS011;12420;42.676;23.262;2023-07-29T09:31:56;9.50;;;3.00;;
12076;SDS011;12420;42.676;23.262;2023-07-29T09:34:46;11.98;;;2.50;;
12076;SDS011;12420;42.676;23.262;2023-07-29T09:37:16;3.20;;;2.20;;
12076;SDS011;12420;42.676;23.262;2023-07-29T09:39:44;2.83;;;2.17;;
12076;SDS011;12420;42.676;23.262;2023-07-29T09:42:12;2.53;;;1.95;;
12076;SDS011;12420;42.676;23.262;2023-07-29T09:44:44;3.85;;;2.33;;
12076;SDS011;12420;42.676;23.262;2023-07-29T09:47:18;6.97;;;2.75;;
12076;SDS011;12420;42.676;23.262;2023-07-29T09:49:48;3.88;;;2.30;;
12076;SDS011;12420;42.676;23.262;2023-07-29T09:52:15;14.43;;;2.40;;
12076;SDS011;12420;42.676;23.262;2023-07-29T09:54:45;2.90;;;1.88;;
12076;SDS011;12420;42.676;23.262;2023-07-29T09:57:13;2.15;;;1.65;;
12076;SDS011;12420;42.676;23.262;2023-07-29T09:59:42;2.28;;;2.08;;
12076;SDS011;12420;42.676;23.262;2023-07-29T10:02:13;4.22;;;1.90;;
12076;SDS011;12420;42.676;23.262;2023-07-29T10:04:42;3.03;;;1.90;;
12076;SDS011;12420;42.676;23.262;2023-07-29T10:07:10;1.90;;;1.80;;
12076;SDS011;12420;42.676;23.262;2023-07-29T10:09:37;2.00;;;1.83;;
12076;SDS011;12420;42.676;23.262;2023-07-29T10:12:06;2.63;;;2.00;;
12076;SDS011;12420;42.676;23.262;2023-07-29T10:14:33;3.15;;;2.10;;
12076;SDS011;12420;42.676;23.262;2023-07-29T10:17:01;3.03;;;1.88;;
12076;SDS011;12420;42.676;23.262;2023-07-29T10:19:29;6.65;;;2.15;;
12076;SDS011;12420;42.676;23.262;2023-07-29T10:21:59;10.68;;;2.13;;
12076;SDS011;12420;42.676;23.262;2023-07-29T10:24:29;5.90;;;1.90;;
12076;SDS011;12420;42.676;23.262;2023-07-29T10:26:57;2.10;;;1.98;;
12076;SDS011;12420;42.676;23.262;2023-07-29T10:29:28;2.28;;;2.00;;
12076;SDS011;12420;42.676;23.262;2023-07-29T10:31:58;2.08;;;1.90;;
12076;SDS011;12420;42.676;23.262;2023-07-29T10:34:29;3.40;;;1.95;;
12076;SDS011;12420;42.676;23.262;2023-07-29T10:36:57;4.32;;;2.00;;
12076;SDS011;12420;42.676;23.262;2023-07-29T10:39:25;2.20;;;2.00;;
12076;SDS011;12420;42.676;23.262;2023-07-29T10:41:57;3.13;;;1.70;;
12076;SDS011;12420;42.676;23.262;2023-07-29T10:47:18;1.80;;;1.70;;
12076;SDS011;12420;42.676;23.262;2023-07-29T10:49:49;1.90;;;1.50;;
12076;SDS011;12420;42.676;23.262;2023-07-29T10:52:27;3.17;;;1.70;;
12076;SDS011;12420;42.676;23.262;2023-07-29T10:54:56;2.25;;;1.50;;
12076;SDS011;12420;42.676;23.262;2023-07-29T10:57:31;1.60;;;1.50;;
12076;SDS011;12420;42.676;23.262;2023-07-29T10:59:59;1.48;;;1.42;;
12076;SDS011;12420;42.676;23.262;2023-07-29T11:02:30;1.75;;;1.65;;
12076;SDS011;12420;42.676;23.262;2023-07-29T11:04:57;2.33;;;1.58;;
12076;SDS011;12420;42.676;23.262;2023-07-29T11:07:25;1.50;;;1.40;;
12076;SDS011;12420;42.676;23.262;2023-07-29T11:09:57;3.97;;;1.50;;
12076;SDS011;12420;42.676;23.262;2023-07-29T11:12:42;1.60;;;1.50;;
12076;SDS011;12420;42.676;23.262;2023-07-29T11:15:18;2.72;;;1.55;;
12076;SDS011;12420;42.676;23.262;2023-07-29T11:17:47;1.58;;;1.50;;
12076;SDS011;12420;42.676;23.262;2023-07-29T11:20:16;1.55;;;1.45;;
12076;SDS011;12420;42.676;23.262;2023-07-29T11:22:44;3.58;;;1.30;;
12076;SDS011;12420;42.676;23.262;2023-07-29T11:25:11;2.92;;;1.60;;
12076;SDS011;12420;42.676;23.262;2023-07-29T11:27:39;1.45;;;1.35;;
12076;SDS011;12420;42.676;23.262;2023-07-29T11:30:08;5.57;;;1.40;;
12076;SDS011;12420;42.676;23.262;2023-07-29T11:32:37;1.58;;;1.48;;
12076;SDS011;12420;42.676;23.262;2023-07-29T11:35:05;1.30;;;1.30;;
12076;SDS011;12420;42.676;23.262;2023-07-29T11:37:34;1.67;;;1.50;;
12076;SDS011;12420;42.676;23.262;2023-07-29T11:40:02;2.83;;;1.48;;
12076;SDS011;12420;42.676;23.262;2023-07-29T11:42:31;1.35;;;1.35;;
12076;SDS011;12420;42.676;23.262;2023-07-29T11:45:01;1.80;;;1.60;;
12076;SDS011;12420;42.676;23.262;2023-07-29T11:47:30;1.30;;;1.30;;
12076;SDS011;12420;42.676;23.262;2023-07-29T11:50:01;1.77;;;1.58;;
12076;SDS011;12420;42.676;23.262;2023-07-29T11:52:31;2.58;;;1.60;;
12076;SDS011;12420;42.676;23.262;2023-07-29T11:55:00;1.67;;;1.40;;
12076;SDS011;12420;42.676;23.262;2023-07-29T11:57:28;2.45;;;1.45;;
12076;SDS011;12420;42.676;23.262;2023-07-29T11:59:56;14.27;;;2.15;;
12076;SDS011;12420;42.676;23.262;2023-07-29T12:02:27;3.53;;;1.50;;
12076;SDS011;12420;42.676;23.262;2023-07-29T12:04:57;1.70;;;1.40;;
12076;SDS011;12420;42.676;23.262;2023-07-29T12:07:24;3.60;;;1.45;;
12076;SDS011;12420;42.676;23.262;2023-07-29T12:09:52;1.63;;;1.50;;
12076;SDS011;12420;42.676;23.262;2023-07-29T12:12:19;1.95;;;1.50;;
12076;SDS011;12420;42.676;23.262;2023-07-29T12:14:49;1.95;;;1.40;;
12076;SDS011;12420;42.676;23.262;2023-07-29T12:17:15;1.83;;;1.30;;
12076;SDS011;12420;42.676;23.262;2023-07-29T12:19:42;2.55;;;1.60;;
12076;SDS011;12420;42.676;23.262;2023-07-29T12:22:10;2.38;;;1.70;;
12076;SDS011;12420;42.676;23.262;2023-07-29T12:24:38;1.30;;;1.30;;
12076;SDS011;12420;42.676;23.262;2023-07-29T12:27:10;1.45;;;1.42;;
12076;SDS011;12420;42.676;23.262;2023-07-29T12:29:39;2.30;;;1.45;;
12076;SDS011;12420;42.676;23.262;2023-07-29T12:32:07;1.33;;;1.33;;
12076;SDS011;12420;42.676;23.262;2023-07-29T12:34:35;1.63;;;1.52;;
12076;SDS011;12420;42.676;23.262;2023-07-29T12:37:03;1.55;;;1.45;;
12076;SDS011;12420;42.676;23.262;2023-07-29T12:39:33;2.00;;;1.33;;
12076;SDS011;12420;42.676;23.262;2023-07-29T12:42:01;1.80;;;1.70;;
12076;SDS011;12420;42.676;23.262;2023-07-29T12:44:29;1.70;;;1.70;;
12076;SDS011;12420;42.676;23.262;2023-07-29T12:46:57;2.83;;;1.38;;
12076;SDS011;12420;42.676;23.262;2023-07-29T12:49:24;1.35;;;1.35;;
12076;SDS011;12420;42.676;23.262;2023-07-29T12:51:53;1.58;;;1.35;;
12076;SDS011;12420;42.676;23.262;2023-07-29T12:54:20;5.45;;;1.60;;
12076;SDS011;12420;42.676;23.262;2023-07-29T12:56:48;2.85;;;1.85;;
12076;SDS011;12420;42.676;23.262;2023-07-29T12:59:15;1.33;;;1.33;;
12076;SDS011;12420;42.676;23.262;2023-07-29T13:01:42;1.60;;;1.50;;
12076;SDS011;12420;42.676;23.262;2023-07-29T13:04:09;3.97;;;1.27;;
12076;SDS011;12420;42.676;23.262;2023-07-29T13:06:37;1.50;;;1.35;;
12076;SDS011;12420;42.676;23.262;2023-07-29T13:09:04;3.25;;;1.48;;
12076;SDS011;12420;42.676;23.262;2023-07-29T13:11:32;3.03;;;1.38;;
12076;SDS011;12420;42.676;23.262;2023-07-29T13:14:01;1.65;;;1.60;;
12076;SDS011;12420;42.676;23.262;2023-07-29T13:16:28;1.60;;;1.27;;
12076;SDS011;12420;42.676;23.262;2023-07-29T13:18:55;3.13;;;1.80;;
12076;SDS011;12420;42.676;23.262;2023-07-29T13:21:22;1.20;;;1.20;;
12076;SDS011;12420;42.676;23.262;2023-07-29T13:23:49;4.53;;;1.95;;
12076;SDS011;12420;42.676;23.262;2023-07-29T13:26:16;5.78;;;1.60;;
12076;SDS011;12420;42.676;23.262;2023-07-29T13:28:44;2.90;;;1.65;;
12076;SDS011;12420;42.676;23.262;2023-07-29T13:31:14;1.95;;;1.80;;
12076;SDS011;12420;42.676;23.262;2023-07-29T13:33:40;4.50;;;1.90;;
12076;SDS011;12420;42.676;23.262;2023-07-29T13:36:07;2.30;;;1.50;;
12076;SDS011;12420;42.676;23.262;2023-07-29T13:38:34;2.75;;;1.88;;
12076;SDS011;12420;42.676;23.262;2023-07-29T13:41:01;2.00;;;1.90;;
12076;SDS011;12420;42.676;23.262;2023-07-29T13:43:28;4.45;;;2.33;;
12076;SDS011;12420;42.676;23.262;2023-07-29T13:45:55;5.60;;;2.90;;
12076;SDS011;12420;42.676;23.262;2023-07-29T13:48:22;5.78;;;3.03;;
12076;SDS011;12420;42.676;23.262;2023-07-29T13:50:50;3.10;;;2.78;;
12076;SDS011;12420;42.676;23.262;2023-07-29T13:53:17;3.15;;;2.85;;
12076;SDS011;12420;42.676;23.262;2023-07-29T13:55:44;2.85;;;2.65;;
12076;SDS011;12420;42.676;23.262;2023-07-29T13:58:11;2.80;;;2.60;;
12076;SDS011;12420;42.676;23.262;2023-07-29T14:00:39;2.58;;;2.42;;
12076;SDS011;12420;42.676;23.262;2023-07-29T14:03:06;2.65;;;2.47;;
12076;SDS011;12420;42.676;23.262;2023-07-29T14:05:34;3.50;;;2.75;;
12076;SDS011;12420;42.676;23.262;2023-07-29T14:08:01;4.85;;;2.92;;
12076;SDS011;12420;42.676;23.262;2023-07-29T14:10:28;5.10;;;2.55;;
12076;SDS011;12420;42.676;23.262;2023-07-29T14:12:55;8.98;;;5.80;;
12076;SDS011;12420;42.676;23.262;2023-07-29T14:15:22;7.30;;;4.30;;
12076;SDS011;12420;42.676;23.262;2023-07-29T14:17:50;5.07;;;3.60;;
12076;SDS011;12420;42.676;23.262;2023-07-29T14:20:17;5.10;;;3.38;;
12076;SDS011;12420;42.676;23.262;2023-07-29T14:22:46;4.15;;;2.90;;
12076;SDS011;12420;42.676;23.262;2023-07-29T14:25:13;4.28;;;2.92;;
12076;SDS011;12420;42.676;23.262;2023-07-29T14:27:40;2.75;;;2.20;;
12076;SDS011;12420;42.676;23.262;2023-07-29T14:30:07;2.33;;;1.90;;
12076;SDS011;12420;42.676;23.262;2023-07-29T14:32:36;2.65;;;2.00;;
12076;SDS011;12420;42.676;23.262;2023-07-29T14:35:03;3.35;;;2.03;;
12076;SDS011;12420;42.676;23.262;2023-07-29T14:37:30;2.88;;;2.05;;
12076;SDS011;12420;42.676;23.262;2023-07-29T14:39:59;2.20;;;2.05;;
12076;SDS011;12420;42.676;23.262;2023-07-29T14:42:26;2.33;;;1.90;;
12076;SDS011;12420;42.676;23.262;2023-07-29T14:44:54;1.98;;;1.88;;